sensor_id;sensor_type;location;lat;lon;timestamp;pressure;altitude;pressure_sealevel;temperature;humidity
46778;BME280;32536;47.128;8.746;2024-02-14T00:00:18;92091.31;;;6.57;50.39
46778;BME280;32536;47.128;8.746;2024-02-14T00:02:46;92090.88;;;6.51;51.17
46778;BME280;32536;47.128;8.746;2024-02-14T00:05:15;92090.81;;;6.44;51.20
46778;BME280;32536;47.128;8.746;2024-02-14T00:07:43;92085.09;;;6.42;51.38
46778;BME280;32536;47.128;8.746;2024-02-14T00:10:09;92086.97;;;6.41;51.34
46778;BME280;32536;47.128;8.746;2024-02-14T00:12:36;92088.19;;;6.48;51.31
46778;BME280;32536;47.128;8.746;2024-02-14T00:15:04;92083.69;;;6.55;51.44
46778;BME280;32536;47.128;8.746;2024-02-14T00:17:33;92090.59;;;6.64;50.76
46778;BME280;32536;47.128;8.746;2024-02-14T00:20:04;92092.91;;;6.65;51.23
46778;BME280;32536;47.128;8.746;2024-02-14T00:22:31;92098.97;;;6.66;51.16
46778;BME280;32536;47.128;8.746;2024-02-14T00:24:58;92102.06;;;6.68;50.75
46778;BME280;32536;47.128;8.746;2024-02-14T00:27:25;92090.66;;;6.71;50.27
46778;BME280;32536;47.128;8.746;2024-02-14T00:29:52;92093.72;;;6.73;50.43
46778;BME280;32536;47.128;8.746;2024-02-14T00:32:19;92092.97;;;6.76;50.60
46778;BME280;32536;47.128;8.746;2024-02-14T00:34:46;92095.31;;;6.81;50.71
46778;BME280;32536;47.128;8.746;2024-02-14T00:37:13;92096.13;;;6.89;50.48
46778;BME280;32536;47.128;8.746;2024-02-14T00:39:40;92098.38;;;6.87;50.25
46778;BME280;32536;47.128;8.746;2024-02-14T00:42:07;92102.16;;;6.86;49.95
46778;BME280;32536;47.128;8.746;2024-02-14T00:44:33;92104.50;;;6.87;50.31
46778;BME280;32536;47.128;8.746;2024-02-14T00:47:00;92112.09;;;6.89;49.72
46778;BME280;32536;47.128;8.746;2024-02-14T00:49:28;92109.41;;;6.85;49.91
46778;BME280;32536;47.128;8.746;2024-02-14T00:51:55;92111.34;;;6.88;49.88
46778;BME280;32536;47.128;8.746;2024-02-14T00:54:22;92108.28;;;6.86;49.70
46778;BME280;32536;47.128;8.746;2024-02-14T00:56:48;92103.31;;;6.81;49.98
46778;BME280;32536;47.128;8.746;2024-02-14T00:59:15;92108.97;;;6.80;49.90
46778;BME280;32536;47.128;8.746;2024-02-14T01:01:42;92112.38;;;6.77;50.35
46778;BME280;32536;47.128;8.746;2024-02-14T01:04:10;92106.66;;;6.75;49.97
46778;BME280;32536;47.128;8.746;2024-02-14T01:06:37;92111.56;;;6.72;50.45
46778;BME280;32536;47.128;8.746;2024-02-14T01:09:04;92110.06;;;6.71;49.86
46778;BME280;32536;47.128;8.746;2024-02-14T01:11:30;92109.69;;;6.73;49.72
46778;BME280;32536;47.128;8.746;2024-02-14T01:13:57;92107.44;;;6.75;50.47
46778;BME280;32536;47.128;8.746;2024-02-14T01:16:24;92111.97;;;6.75;49.87
46778;BME280;32536;47.128;8.746;2024-02-14T01:18:52;92119.25;;;6.78;49.41
46778;BME280;32536;47.128;8.746;2024-02-14T01:21:19;92124.59;;;6.81;50.08
46778;BME280;32536;47.128;8.746;2024-02-14T01:23:45;92131.47;;;6.86;49.94
46778;BME280;32536;47.128;8.746;2024-02-14T01:26:12;92136.03;;;6.85;49.56
46778;BME280;32536;47.128;8.746;2024-02-14T01:28:39;92128.41;;;6.80;49.94
46778;BME280;32536;47.128;8.746;2024-02-14T01:31:06;92126.00;;;6.68;50.27
46778;BME280;32536;47.128;8.746;2024-02-14T01:33:32;92130.13;;;6.58;49.99
46778;BME280;32536;47.128;8.746;2024-02-14T01:35:59;92130.38;;;6.49;50.37
46778;BME280;32536;47.128;8.746;2024-02-14T01:38:26;92136.06;;;6.44;50.30
46778;BME280;32536;47.128;8.746;2024-02-14T01:40:52;92138.72;;;6.44;50.50
46778;BME280;32536;47.128;8.746;2024-02-14T01:43:19;92128.88;;;6.48;51.15
46778;BME280;32536;47.128;8.746;2024-02-14T01:45:46;92127.41;;;6.54;50.41
46778;BME280;32536;47.128;8.746;2024-02-14T01:48:13;92135.09;;;6.63;51.00
46778;BME280;32536;47.128;8.746;2024-02-14T01:50:44;92126.34;;;6.66;50.39
46778;BME280;32536;47.128;8.746;2024-02-14T01:53:11;92129.06;;;6.70;50.55
46778;BME280;32536;47.128;8.746;2024-02-14T01:55:39;92132.53;;;6.74;50.01
46778;BME280;32536;47.128;8.746;2024-02-14T01:58:05;92127.59;;;6.76;49.93
46778;BME280;32536;47.128;8.746;2024-02-14T02:00:33;92126.44;;;6.77;50.41
46778;BME280;32536;47.128;8.746;2024-02-14T02:03:01;92123.44;;;6.79;50.53
46778;BME280;32536;47.128;8.746;2024-02-14T02:05:28;92117.34;;;6.78;50.87
46778;BME280;32536;47.128;8.746;2024-02-14T02:07:55;92116.19;;;6.76;50.24
46778;BME280;32536;47.128;8.746;2024-02-14T02:10:22;92120.38;;;6.77;50.63
46778;BME280;32536;47.128;8.746;2024-02-14T02:12:57;92121.13;;;6.77;50.09
46778;BME280;32536;47.128;8.746;2024-02-14T02:15:27;92119.63;;;6.80;50.50
46778;BME280;32536;47.128;8.746;2024-02-14T02:17:55;92118.16;;;6.82;50.35
46778;BME280;32536;47.128;8.746;2024-02-14T02:20:22;92122.31;;;6.83;50.28
46778;BME280;32536;47.128;8.746;2024-02-14T02:22:49;92120.06;;;6.85;50.43
46778;BME280;32536;47.128;8.746;2024-02-14T02:25:15;92118.56;;;6.88;50.45
46778;BME280;32536;47.128;8.746;2024-02-14T02:27:43;92122.75;;;6.89;50.30
46778;BME280;32536;47.128;8.746;2024-02-14T02:30:10;92119.72;;;6.91;50.59
46778;BME280;32536;47.128;8.746;2024-02-14T02:32:39;92107.16;;;6.87;50.33
46778;BME280;32536;47.128;8.746;2024-02-14T02:35:07;92115.91;;;6.88;50.49
46778;BME280;32536;47.128;8.746;2024-02-14T02:37:35;92115.50;;;6.86;50.26
46778;BME280;32536;47.128;8.746;2024-02-14T02:40:02;92108.28;;;6.86;49.67
46778;BME280;32536;47.128;8.746;2024-02-14T02:42:30;92104.13;;;6.89;50.37
46778;BME280;32536;47.128;8.746;2024-02-14T02:44:57;92110.56;;;6.88;50.25
46778;BME280;32536;47.128;8.746;2024-02-14T02:47:24;92109.03;;;6.87;49.64
46778;BME280;32536;47.128;8.746;2024-02-14T02:49:50;92108.66;;;6.85;49.50
46778;BME280;32536;47.128;8.746;2024-02-14T02:52:18;92104.44;;;6.80;49.83
46778;BME280;32536;47.128;8.746;2024-02-14T02:54:44;92100.19;;;6.76;49.90
46778;BME280;32536;47.128;8.746;2024-02-14T02:57:13;92106.66;;;6.75;50.08
46778;BME280;32536;47.128;8.746;2024-02-14T02:59:40;92108.94;;;6.76;50.00
46778;BME280;32536;47.128;8.746;2024-02-14T03:02:08;92099.81;;;6.73;49.85
46778;BME280;32536;47.128;8.746;2024-02-14T03:04:40;92107.38;;;6.68;50.28
46778;BME280;32536;47.128;8.746;2024-02-14T03:07:10;92106.94;;;6.62;50.33
46778;BME280;32536;47.128;8.746;2024-02-14T03:09:37;92102.34;;;6.59;50.43
46778;BME280;32536;47.128;8.746;2024-02-14T03:12:05;92110.31;;;6.59;50.14
46778;BME280;32536;47.128;8.746;2024-02-14T03:14:32;92103.53;;;6.62;50.31
46778;BME280;32536;47.128;8.746;2024-02-14T03:17:00;92113.78;;;6.63;50.30
46778;BME280;32536;47.128;8.746;2024-02-14T03:19:28;92106.56;;;6.64;50.71
46778;BME280;32536;47.128;8.746;2024-02-14T03:21:56;92108.09;;;6.65;50.94
46778;BME280;32536;47.128;8.746;2024-02-14T03:24:24;92110.03;;;6.68;50.65
46778;BME280;32536;47.128;8.746;2024-02-14T03:26:51;92108.16;;;6.72;51.06
46778;BME280;32536;47.128;8.746;2024-02-14T03:29:22;92111.59;;;6.76;50.89
46778;BME280;32536;47.128;8.746;2024-02-14T03:31:48;92120.44;;;6.84;50.63
46778;BME280;32536;47.128;8.746;2024-02-14T03:34:15;92120.09;;;6.89;50.68
46778;BME280;32536;47.128;8.746;2024-02-14T03:36:42;92110.22;;;6.93;50.43
46778;BME280;32536;47.128;8.746;2024-02-14T03:39:09;92115.53;;;6.93;50.60
46778;BME280;32536;47.128;8.746;2024-02-14T03:41:37;92113.66;;;6.94;50.23
46778;BME280;32536;47.128;8.746;2024-02-14T03:44:03;92110.63;;;6.95;50.79
46778;BME280;32536;47.128;8.746;2024-02-14T03:46:32;92109.47;;;6.93;50.67
46778;BME280;32536;47.128;8.746;2024-02-14T03:49:01;92102.56;;;6.88;50.40
46778;BME280;32536;47.128;8.746;2024-02-14T03:51:27;92118.19;;;6.89;50.53
46778;BME280;32536;47.128;8.746;2024-02-14T03:53:54;92115.19;;;6.95;50.45
46778;BME280;32536;47.128;8.746;2024-02-14T03:56:21;92103.41;;;6.99;50.70
46778;BME280;32536;47.128;8.746;2024-02-14T03:58:49;92111.03;;;6.97;50.56
46778;BME280;32536;47.128;8.746;2024-02-14T04:01:16;92109.50;;;6.96;50.84
46778;BME280;32536;47.128;8.746;2024-02-14T04:03:43;92109.50;;;6.96;50.53
46778;BME280;32536;47.128;8.746;2024-02-14T04:06:11;92119.41;;;6.96;50.53
46778;BME280;32536;47.128;8.746;2024-02-14T04:08:39;92113.69;;;6.97;50.49
46778;BME280;32536;47.128;8.746;2024-02-14T04:11:05;92131.94;;;6.95;50.54
46778;BME280;32536;47.128;8.746;2024-02-14T04:13:32;92135.72;;;6.94;50.49
46778;BME280;32536;47.128;8.746;2024-02-14T04:15:59;92130.41;;;6.94;50.81
46778;BME280;32536;47.128;8.746;2024-02-14T04:18:26;92122.75;;;6.89;50.11
46778;BME280;32536;47.128;8.746;2024-02-14T04:20:53;92124.97;;;6.83;50.38
46778;BME280;32536;47.128;8.746;2024-02-14T04:23:20;92128.81;;;6.86;50.37
46778;BME280;32536;47.128;8.746;2024-02-14T04:25:48;92126.91;;;6.86;50.60
46778;BME280;32536;47.128;8.746;2024-02-14T04:28:14;92130.34;;;6.87;50.78
46778;BME280;32536;47.128;8.746;2024-02-14T04:30:41;92128.84;;;6.89;50.28
46778;BME280;32536;47.128;8.746;2024-02-14T04:33:08;92125.81;;;6.91;50.72
46778;BME280;32536;47.128;8.746;2024-02-14T04:35:35;92127.69;;;6.91;50.08
46778;BME280;32536;47.128;8.746;2024-02-14T04:38:36;92116.28;;;6.90;49.95
46778;BME280;32536;47.128;8.746;2024-02-14T04:41:04;92116.69;;;6.92;50.89
46778;BME280;32536;47.128;8.746;2024-02-14T04:43:30;92119.38;;;6.92;50.61
46778;BME280;32536;47.128;8.746;2024-02-14T04:45:57;92118.22;;;6.93;50.15
46778;BME280;32536;47.128;8.746;2024-02-14T04:48:24;92114.06;;;6.96;50.21
46778;BME280;32536;47.128;8.746;2024-02-14T04:50:51;92111.41;;;6.99;50.48
46778;BME280;32536;47.128;8.746;2024-02-14T04:53:18;92111.44;;;7.03;49.82
46778;BME280;32536;47.128;8.746;2024-02-14T04:55:45;92112.22;;;7.03;50.33
46778;BME280;32536;47.128;8.746;2024-02-14T04:58:12;92112.97;;;7.04;50.43
46778;BME280;32536;47.128;8.746;2024-02-14T05:00:39;92116.41;;;7.04;50.13
46778;BME280;32536;47.128;8.746;2024-02-14T05:03:05;92113.00;;;7.08;50.66
46778;BME280;32536;47.128;8.746;2024-02-14T05:05:33;92124.06;;;7.10;50.12
46778;BME280;32536;47.128;8.746;2024-02-14T05:08:00;92124.47;;;7.15;50.04
46778;BME280;32536;47.128;8.746;2024-02-14T05:10:28;92124.50;;;7.19;50.09
46778;BME280;32536;47.128;8.746;2024-02-14T05:12:55;92130.63;;;7.23;49.95
46778;BME280;32536;47.128;8.746;2024-02-14T05:15:22;92136.34;;;7.25;50.03
46778;BME280;32536;47.128;8.746;2024-02-14T05:17:49;92136.34;;;7.25;50.50
46778;BME280;32536;47.128;8.746;2024-02-14T05:20:17;92146.97;;;7.21;50.41
46778;BME280;32536;47.128;8.746;2024-02-14T05:22:44;92150.34;;;7.15;50.28
46778;BME280;32536;47.128;8.746;2024-02-14T05:25:11;92149.91;;;7.09;50.69
46778;BME280;32536;47.128;8.746;2024-02-14T05:27:38;92158.66;;;7.06;50.51
46778;BME280;32536;47.128;8.746;2024-02-14T05:30:05;92162.06;;;7.07;50.43
46778;BME280;32536;47.128;8.746;2024-02-14T05:32:33;92166.69;;;7.10;51.07
46778;BME280;32536;47.128;8.746;2024-02-14T05:35:00;92170.91;;;7.14;51.03
46778;BME280;32536;47.128;8.746;2024-02-14T05:37:29;92167.13;;;7.19;50.40
46778;BME280;32536;47.128;8.746;2024-02-14T05:39:56;92166.78;;;7.24;50.70
46778;BME280;32536;47.128;8.746;2024-02-14T05:42:23;92169.09;;;7.29;50.72
46778;BME280;32536;47.128;8.746;2024-02-14T05:44:50;92163.41;;;7.34;50.45
46778;BME280;32536;47.128;8.746;2024-02-14T05:47:17;92164.97;;;7.35;50.65
46778;BME280;32536;47.128;8.746;2024-02-14T05:49:44;92157.38;;;7.37;50.39
46778;BME280;32536;47.128;8.746;2024-02-14T05:52:11;92158.50;;;7.36;50.21
46778;BME280;32536;47.128;8.746;2024-02-14T05:54:38;92167.25;;;7.37;50.17
46778;BME280;32536;47.128;8.746;2024-02-14T05:57:05;92179.03;;;7.36;50.49
46778;BME280;32536;47.128;8.746;2024-02-14T05:59:32;92180.91;;;7.32;50.27
46778;BME280;32536;47.128;8.746;2024-02-14T06:01:59;92176.69;;;7.27;50.27
46778;BME280;32536;47.128;8.746;2024-02-14T06:04:28;92182.41;;;7.26;50.48
46778;BME280;32536;47.128;8.746;2024-02-14T06:06:55;92188.47;;;7.22;50.72
46778;BME280;32536;47.128;8.746;2024-02-14T06:09:22;92190.00;;;7.24;50.65
46778;BME280;32536;47.128;8.746;2024-02-14T06:11:49;92186.59;;;7.27;50.67
46778;BME280;32536;47.128;8.746;2024-02-14T06:14:15;92178.97;;;7.25;50.18
46778;BME280;32536;47.128;8.746;2024-02-14T06:16:42;92183.16;;;7.26;51.02
46778;BME280;32536;47.128;8.746;2024-02-14T06:19:10;92179.34;;;7.27;50.89
46778;BME280;32536;47.128;8.746;2024-02-14T06:21:37;92188.16;;;7.31;50.72
46778;BME280;32536;47.128;8.746;2024-02-14T06:24:04;92182.06;;;7.34;51.20
46778;BME280;32536;47.128;8.746;2024-02-14T06:26:31;92194.69;;;7.37;50.85
46778;BME280;32536;47.128;8.746;2024-02-14T06:28:59;92192.41;;;7.43;51.11
46778;BME280;32536;47.128;8.746;2024-02-14T06:31:25;92194.34;;;7.46;50.71
46778;BME280;32536;47.128;8.746;2024-02-14T06:33:52;92182.59;;;7.51;50.67
46778;BME280;32536;47.128;8.746;2024-02-14T06:36:19;92187.94;;;7.55;50.06
46778;BME280;32536;47.128;8.746;2024-02-14T06:38:45;92190.97;;;7.57;50.24
46778;BME280;32536;47.128;8.746;2024-02-14T06:41:13;92194.84;;;7.59;50.33
46778;BME280;32536;47.128;8.746;2024-02-14T06:43:39;92193.31;;;7.62;49.76
46778;BME280;32536;47.128;8.746;2024-02-14T06:46:06;92200.94;;;7.63;50.00
46778;BME280;32536;47.128;8.746;2024-02-14T06:48:33;92202.84;;;7.59;49.85
46778;BME280;32536;47.128;8.746;2024-02-14T06:51:00;92205.47;;;7.56;50.63
46778;BME280;32536;47.128;8.746;2024-02-14T06:53:26;92208.88;;;7.56;50.15
46778;BME280;32536;47.128;8.746;2024-02-14T06:55:53;92215.38;;;7.59;50.33
46778;BME280;32536;47.128;8.746;2024-02-14T06:58:20;92210.84;;;7.59;50.02
46778;BME280;32536;47.128;8.746;2024-02-14T07:00:47;92211.97;;;7.58;50.18
46778;BME280;32536;47.128;8.746;2024-02-14T07:03:13;92213.09;;;7.57;50.60
46778;BME280;32536;47.128;8.746;2024-02-14T07:05:40;92210.84;;;7.59;49.98
46778;BME280;32536;47.128;8.746;2024-02-14T07:08:07;92214.66;;;7.62;50.27
46778;BME280;32536;47.128;8.746;2024-02-14T07:10:34;92210.06;;;7.62;50.23
46778;BME280;32536;47.128;8.746;2024-02-14T07:13:01;92211.22;;;7.65;50.70
46778;BME280;32536;47.128;8.746;2024-02-14T07:15:28;92205.53;;;7.70;50.52
46778;BME280;32536;47.128;8.746;2024-02-14T07:17:55;92210.88;;;7.70;50.13
46778;BME280;32536;47.128;8.746;2024-02-14T07:20:24;92210.50;;;7.68;50.58
46778;BME280;32536;47.128;8.746;2024-02-14T07:22:55;92202.84;;;7.66;49.97
46778;BME280;32536;47.128;8.746;2024-02-14T07:25:22;92198.31;;;7.67;50.04
46778;BME280;32536;47.128;8.746;2024-02-14T07:27:49;92205.16;;;7.68;50.21
46778;BME280;32536;47.128;8.746;2024-02-14T07:30:16;92201.38;;;7.69;50.62
46778;BME280;32536;47.128;8.746;2024-02-14T07:32:46;92196.06;;;7.73;50.05
46778;BME280;32536;47.128;8.746;2024-02-14T07:35:13;92193.06;;;7.81;50.66
46778;BME280;32536;47.128;8.746;2024-02-14T07:37:40;92188.50;;;7.89;50.12
46778;BME280;32536;47.128;8.746;2024-02-14T07:40:09;92188.19;;;8.01;50.51
46778;BME280;32536;47.128;8.746;2024-02-14T07:42:37;92185.56;;;8.12;49.96
46778;BME280;32536;47.128;8.746;2024-02-14T07:45:04;92173.78;;;8.21;49.40
46778;BME280;32536;47.128;8.746;2024-02-14T07:47:31;92182.59;;;8.32;49.55
46778;BME280;32536;47.128;8.746;2024-02-14T07:49:58;92174.22;;;8.37;49.38
46778;BME280;32536;47.128;8.746;2024-02-14T07:52:25;92179.22;;;8.42;49.67
46778;BME280;32536;47.128;8.746;2024-02-14T07:54:53;92185.34;;;8.46;49.50
46778;BME280;32536;47.128;8.746;2024-02-14T07:57:22;92184.22;;;8.47;49.39
46778;BME280;32536;47.128;8.746;2024-02-14T07:59:50;92177.69;;;8.45;49.52
46778;BME280;32536;47.128;8.746;2024-02-14T08:02:18;92180.72;;;8.40;49.75
46778;BME280;32536;47.128;8.746;2024-02-14T08:04:46;92175.38;;;8.36;49.67
46778;BME280;32536;47.128;8.746;2024-02-14T08:07:12;92184.88;;;8.33;49.95
46778;BME280;32536;47.128;8.746;2024-02-14T08:09:39;92189.09;;;8.34;49.98
46778;BME280;32536;47.128;8.746;2024-02-14T08:12:06;92192.13;;;8.33;50.16
46778;BME280;32536;47.128;8.746;2024-02-14T08:14:33;92189.09;;;8.34;49.91
46778;BME280;32536;47.128;8.746;2024-02-14T08:17:00;92178.06;;;8.36;49.52
46778;BME280;32536;47.128;8.746;2024-02-14T08:19:26;92174.59;;;8.36;49.91
46778;BME280;32536;47.128;8.746;2024-02-14T08:21:53;92180.34;;;8.41;49.90
46778;BME280;32536;47.128;8.746;2024-02-14T08:24:25;92172.75;;;8.51;49.34
46778;BME280;32536;47.128;8.746;2024-02-14T08:26:53;92169.75;;;8.63;49.64
46778;BME280;32536;47.128;8.746;2024-02-14T08:29:20;92165.59;;;8.73;49.43
46778;BME280;32536;47.128;8.746;2024-02-14T08:31:47;92163.69;;;8.80;49.45
46778;BME280;32536;47.128;8.746;2024-02-14T08:34:14;92167.88;;;8.89;49.18
46778;BME280;32536;47.128;8.746;2024-02-14T08:36:42;92164.84;;;8.97;49.13
46778;BME280;32536;47.128;8.746;2024-02-14T08:39:10;92163.31;;;9.00;49.00
46778;BME280;32536;47.128;8.746;2024-02-14T08:41:37;92157.97;;;9.04;49.33
46778;BME280;32536;47.128;8.746;2024-02-14T08:44:07;92159.13;;;9.10;49.19
46778;BME280;32536;47.128;8.746;2024-02-14T08:46:33;92156.44;;;9.17;49.18
46778;BME280;32536;47.128;8.746;2024-02-14T08:49:01;92156.44;;;9.24;49.23
46778;BME280;32536;47.128;8.746;2024-02-14T08:51:28;92162.53;;;9.32;48.96
46778;BME280;32536;47.128;8.746;2024-02-14T08:53:55;92159.13;;;9.39;49.09
46778;BME280;32536;47.128;8.746;2024-02-14T08:56:25;92175.53;;;9.37;49.32
46778;BME280;32536;47.128;8.746;2024-02-14T08:58:52;92174.38;;;9.38;49.33
46778;BME280;32536;47.128;8.746;2024-02-14T09:01:18;92166.34;;;9.35;49.08
46778;BME280;32536;47.128;8.746;2024-02-14T09:03:47;92174.38;;;9.27;49.51
46778;BME280;32536;47.128;8.746;2024-02-14T09:06:16;92167.53;;;9.26;49.24
46778;BME280;32536;47.128;8.746;2024-02-14T09:08:46;92167.53;;;9.26;49.85
46778;BME280;32536;47.128;8.746;2024-02-14T09:11:13;92170.22;;;9.26;49.74
46778;BME280;32536;47.128;8.746;2024-02-14T09:13:40;92169.44;;;9.33;49.14
46778;BME280;32536;47.128;8.746;2024-02-14T09:16:11;92169.44;;;9.37;48.96
46778;BME280;32536;47.128;8.746;2024-02-14T09:18:38;92176.31;;;9.41;49.49
46778;BME280;32536;47.128;8.746;2024-02-14T09:21:05;92182.41;;;9.45;49.62
46778;BME280;32536;47.128;8.746;2024-02-14T09:23:32;92188.88;;;9.52;49.50
46778;BME280;32536;47.128;8.746;2024-02-14T09:25:59;92185.47;;;9.58;49.10
46778;BME280;32536;47.128;8.746;2024-02-14T09:28:27;92188.50;;;9.64;48.73
46778;BME280;32536;47.128;8.746;2024-02-14T09:30:53;92204.94;;;9.66;47.46
46778;BME280;32536;47.128;8.746;2024-02-14T09:33:20;92186.59;;;9.68;47.68
46778;BME280;32536;47.128;8.746;2024-02-14T09:35:47;92198.81;;;9.69;47.54
46778;BME280;32536;47.128;8.746;2024-02-14T09:38:14;92198.44;;;9.74;47.55
46778;BME280;32536;47.128;8.746;2024-02-14T09:40:41;92203.78;;;9.78;47.15
46778;BME280;32536;47.128;8.746;2024-02-14T09:43:22;92194.97;;;9.81;47.35
46778;BME280;32536;47.128;8.746;2024-02-14T09:45:58;92201.44;;;9.91;47.24
46778;BME280;32536;47.128;8.746;2024-02-14T09:48:25;92194.19;;;9.95;46.49
46778;BME280;32536;47.128;8.746;2024-02-14T09:50:53;92206.41;;;10.00;47.01
46778;BME280;32536;47.128;8.746;2024-02-14T09:53:21;92205.63;;;10.06;46.74
46778;BME280;32536;47.128;8.746;2024-02-14T09:55:53;92207.13;;;10.11;45.86
46778;BME280;32536;47.128;8.746;2024-02-14T09:58:21;92205.59;;;10.17;46.54
46778;BME280;32536;47.128;8.746;2024-02-14T10:00:49;92196.41;;;10.22;46.37
46778;BME280;32536;47.128;8.746;2024-02-14T10:03:17;92197.13;;;10.30;46.76
46778;BME280;32536;47.128;8.746;2024-02-14T10:05:43;92190.22;;;10.36;46.05
46778;BME280;32536;47.128;8.746;2024-02-14T10:08:10;92196.34;;;10.44;46.45
46778;BME280;32536;47.128;8.746;2024-02-14T10:10:38;92195.94;;;10.52;47.00
46778;BME280;32536;47.128;8.746;2024-02-14T10:13:05;92202.00;;;10.64;46.83
46778;BME280;32536;47.128;8.746;2024-02-14T10:15:33;92194.69;;;10.71;46.69
46778;BME280;32536;47.128;8.746;2024-02-14T10:18:00;92193.09;;;10.78;46.75
46778;BME280;32536;47.128;8.746;2024-02-14T10:20:29;92199.59;;;10.84;46.62
46778;BME280;32536;47.128;8.746;2024-02-14T10:23:03;92194.97;;;10.88;46.66
46778;BME280;32536;47.128;8.746;2024-02-14T10:25:30;92202.19;;;10.95;46.66
46778;BME280;32536;47.128;8.746;2024-02-14T10:28:03;92199.13;;;11.00;46.18
46778;BME280;32536;47.128;8.746;2024-02-14T10:30:37;92199.47;;;11.05;46.12
46778;BME280;32536;47.128;8.746;2024-02-14T10:33:04;92196.34;;;11.11;46.72
46778;BME280;32536;47.128;8.746;2024-02-14T10:35:35;92208.59;;;11.15;46.55
46778;BME280;32536;47.128;8.746;2024-02-14T10:38:07;92201.66;;;11.21;46.41
46778;BME280;32536;47.128;8.746;2024-02-14T10:40:36;92202.41;;;11.26;46.31
46778;BME280;32536;47.128;8.746;2024-02-14T10:43:08;92198.91;;;11.32;46.57
46778;BME280;32536;47.128;8.746;2024-02-14T10:45:35;92205.34;;;11.38;46.59
46778;BME280;32536;47.128;8.746;2024-02-14T10:48:06;92206.84;;;11.47;46.10
46778;BME280;32536;47.128;8.746;2024-02-14T10:50:41;92203.69;;;11.56;46.42
46778;BME280;32536;47.128;8.746;2024-02-14T10:53:13;92209.75;;;11.67;46.04
46778;BME280;32536;47.128;8.746;2024-02-14T10:55:48;92207.34;;;11.76;45.72
46778;BME280;32536;47.128;8.746;2024-02-14T10:58:18;92216.47;;;11.86;45.79
46778;BME280;32536;47.128;8.746;2024-02-14T11:00:46;92215.66;;;11.93;46.68
46778;BME280;32536;47.128;8.746;2024-02-14T11:03:14;92210.63;;;11.98;46.29
46778;BME280;32536;47.128;8.746;2024-02-14T11:05:45;92212.13;;;12.03;45.50
46778;BME280;32536;47.128;8.746;2024-02-14T11:08:20;92210.88;;;12.11;44.74
46778;BME280;32536;47.128;8.746;2024-02-14T11:10:55;92214.63;;;12.21;45.21
46778;BME280;32536;47.128;8.746;2024-02-14T11:13:26;92206.88;;;12.30;45.30
46778;BME280;32536;47.128;8.746;2024-02-14T11:15:54;92213.28;;;12.40;45.84
46778;BME280;32536;47.128;8.746;2024-02-14T11:18:28;92202.84;;;12.46;44.68
46778;BME280;32536;47.128;8.746;2024-02-14T11:20:56;92205.81;;;12.55;45.93
46778;BME280;32536;47.128;8.746;2024-02-14T11:23:30;92210.38;;;12.58;45.06
46778;BME280;32536;47.128;8.746;2024-02-14T11:26:01;92211.13;;;12.59;45.50
46778;BME280;32536;47.128;8.746;2024-02-14T11:28:30;92212.97;;;12.65;46.17
46778;BME280;32536;47.128;8.746;2024-02-14T11:31:01;92207.22;;;12.67;45.24
46778;BME280;32536;47.128;8.746;2024-02-14T11:33:29;92204.47;;;12.71;46.18
46778;BME280;32536;47.128;8.746;2024-02-14T11:35:56;92202.91;;;12.73;45.96
46778;BME280;32536;47.128;8.746;2024-02-14T11:38:24;92201.34;;;12.76;45.81
46778;BME280;32536;47.128;8.746;2024-02-14T11:41:27;92212.38;;;12.81;45.89
46778;BME280;32536;47.128;8.746;2024-02-14T11:43:54;92204.31;;;12.81;45.93
46778;BME280;32536;47.128;8.746;2024-02-14T11:46:21;92205.84;;;12.82;46.06
46778;BME280;32536;47.128;8.746;2024-02-14T11:48:48;92201.25;;;12.83;46.03
46778;BME280;32536;47.128;8.746;2024-02-14T11:51:15;92193.94;;;12.84;46.21
46778;BME280;32536;47.128;8.746;2024-02-14T11:53:42;92194.59;;;12.91;46.07
46778;BME280;32536;47.128;8.746;2024-02-14T11:56:09;92192.56;;;12.99;46.08
46778;BME280;32536;47.128;8.746;2024-02-14T11:58:35;92180.66;;;13.00;45.60
46778;BME280;32536;47.128;8.746;2024-02-14T12:01:03;92192.63;;;12.95;45.73
46778;BME280;32536;47.128;8.746;2024-02-14T12:03:31;92193.03;;;12.94;45.95
46778;BME280;32536;47.128;8.746;2024-02-14T12:05:58;92207.66;;;12.93;45.98
46778;BME280;32536;47.128;8.746;2024-02-14T12:08:25;92207.59;;;12.96;45.77
46778;BME280;32536;47.128;8.746;2024-02-14T12:10:53;92210.25;;;13.00;45.90
46778;BME280;32536;47.128;8.746;2024-02-14T12:13:21;92209.78;;;13.05;45.65
46778;BME280;32536;47.128;8.746;2024-02-14T12:15:49;92212.38;;;13.12;45.97
46778;BME280;32536;47.128;8.746;2024-02-14T12:18:18;92210.38;;;13.17;44.97
46778;BME280;32536;47.128;8.746;2024-02-14T12:20:46;92214.97;;;13.20;44.95
46778;BME280;32536;47.128;8.746;2024-02-14T12:23:16;92209.16;;;13.21;44.77
46778;BME280;32536;47.128;8.746;2024-02-14T12:25:44;92210.34;;;13.20;43.88
46778;BME280;32536;47.128;8.746;2024-02-14T12:28:16;92203.38;;;13.23;43.59
46778;BME280;32536;47.128;8.746;2024-02-14T12:30:45;92200.63;;;13.26;43.47
46778;BME280;32536;47.128;8.746;2024-02-14T12:33:16;92201.75;;;13.29;42.91
46778;BME280;32536;47.128;8.746;2024-02-14T12:35:48;92202.06;;;13.35;39.48
46778;BME280;32536;47.128;8.746;2024-02-14T12:38:17;92213.84;;;13.44;43.16
46778;BME280;32536;47.128;8.746;2024-02-14T12:40:45;92210.31;;;13.51;43.63
46778;BME280;32536;47.128;8.746;2024-02-14T12:43:14;92198.28;;;13.56;42.77
46778;BME280;32536;47.128;8.746;2024-02-14T12:45:44;92199.34;;;13.62;42.88
46778;BME280;32536;47.128;8.746;2024-02-14T12:48:12;92201.66;;;13.64;42.47
46778;BME280;32536;47.128;8.746;2024-02-14T12:50:41;92199.94;;;13.73;43.34
46778;BME280;32536;47.128;8.746;2024-02-14T12:53:14;92201.34;;;13.82;43.16
46778;BME280;32536;47.128;8.746;2024-02-14T12:55:40;92198.53;;;13.89;43.42
46778;BME280;32536;47.128;8.746;2024-02-14T12:58:07;92197.28;;;13.93;42.85
46778;BME280;32536;47.128;8.746;2024-02-14T13:00:35;92195.66;;;14.00;42.62
46778;BME280;32536;47.128;8.746;2024-02-14T13:03:03;92199.50;;;13.99;42.25
46778;BME280;32536;47.128;8.746;2024-02-14T13:08:16;92189.50;;;13.99;41.73
46778;BME280;32536;47.128;8.746;2024-02-14T13:10:43;92197.53;;;14.03;42.11
46778;BME280;32536;47.128;8.746;2024-02-14T13:13:10;92187.50;;;14.03;41.90